createdAt,value
2017-07-28T00:02:25.402Z,62.47
2017-07-28T00:04:52.794Z,62.68
2017-07-28T00:07:20.194Z,62.64
2017-07-28T00:09:48.471Z,62.77
2017-07-28T00:12:16.107Z,62.51
2017-07-28T00:14:43.500Z,62.59
2017-07-28T00:17:11.106Z,62.74
2017-07-28T00:19:38.500Z,62.57
2017-07-28T00:22:05.898Z,62.90
2017-07-28T00:24:33.694Z,63.10
2017-07-28T00:27:01.092Z,63.33
2017-07-28T00:29:28.486Z,63.57
2017-07-28T00:31:55.890Z,63.13
2017-07-28T00:34:23.283Z,62.82
2017-07-28T00:36:50.686Z,63.45
2017-07-28T00:39:18.099Z,62.99
2017-07-28T00:41:45.473Z,62.31
2017-07-28T00:44:12.871Z,62.17
2017-07-28T00:46:40.270Z,62.31
2017-07-28T00:49:07.654Z,62.67
2017-07-28T00:51:35.075Z,62.55
2017-07-28T00:54:02.462Z,62.56
2017-07-28T00:56:29.865Z,62.51
2017-07-28T00:58:57.258Z,62.37
2017-07-28T01:01:24.934Z,62.71
2017-07-28T01:03:52.363Z,63.02
2017-07-28T01:06:19.750Z,62.79
2017-07-28T01:08:47.150Z,62.45
2017-07-28T01:11:14.549Z,62.80
2017-07-28T01:13:41.946Z,63.31
2017-07-28T01:16:09.575Z,63.41
2017-07-28T01:18:36.974Z,63.30
2017-07-28T01:21:04.374Z,63.11
2017-07-28T01:23:31.774Z,63.00
2017-07-28T01:25:59.160Z,63.13
2017-07-28T01:28:26.584Z,63.10
2017-07-28T01:30:53.950Z,63.13
2017-07-28T01:33:21.354Z,63.61
2017-07-28T01:35:48.747Z,63.37
2017-07-28T01:38:16.138Z,63.66
2017-07-28T01:40:43.530Z,63.56
2017-07-28T01:43:10.926Z,63.71
2017-07-28T01:45:38.546Z,64.03
2017-07-28T01:48:06.207Z,63.58
2017-07-28T01:50:33.598Z,64.02
2017-07-28T01:53:01.010Z,63.85
2017-07-28T01:55:28.394Z,63.23
2017-07-28T01:57:56.030Z,63.48
2017-07-28T02:00:23.423Z,63.59
2017-07-28T02:02:50.822Z,63.72
2017-07-28T02:05:18.218Z,63.83
2017-07-28T02:07:45.855Z,63.74
2017-07-28T02:10:13.250Z,63.06
2017-07-28T02:12:40.647Z,63.26
2017-07-28T02:15:08.042Z,62.88
2017-07-28T02:17:35.434Z,63.47
2017-07-28T02:20:02.839Z,63.54
2017-07-28T02:22:30.231Z,63.08
2017-07-28T02:24:57.626Z,63.10
2017-07-28T02:27:25.029Z,63.03
2017-07-28T02:29:52.435Z,63.32
2017-07-28T02:32:19.827Z,63.30
2017-07-28T02:34:47.226Z,63.45
2017-07-28T02:37:14.610Z,63.52
2017-07-28T02:39:42.007Z,63.67
2017-07-28T02:42:09.415Z,63.55
2017-07-28T02:44:37.090Z,63.33
2017-07-28T02:47:04.478Z,63.95
2017-07-28T02:49:31.875Z,63.90
2017-07-28T02:51:59.466Z,63.90
2017-07-28T02:54:26.866Z,63.73
2017-07-28T02:56:54.255Z,63.60
2017-07-28T02:59:21.648Z,63.32
2017-07-28T03:01:49.034Z,63.23
2017-07-28T03:04:16.440Z,63.38
2017-07-28T03:06:43.823Z,64.05
2017-07-28T03:12:01.887Z,63.91
2017-07-28T03:14:29.279Z,64.04
2017-07-28T03:16:56.676Z,63.94
2017-07-28T03:19:24.066Z,64.20
2017-07-28T03:21:51.779Z,64.68
2017-07-28T03:24:19.184Z,64.58
2017-07-28T03:26:46.795Z,64.64
2017-07-28T03:29:14.195Z,64.74
2017-07-28T03:31:41.595Z,64.64
2017-07-28T03:34:09.019Z,64.84
2017-07-28T03:36:36.412Z,65.54
2017-07-28T03:39:03.810Z,65.54
2017-07-28T03:41:31.219Z,65.86
2017-07-28T03:43:58.604Z,65.98
2017-07-28T03:46:25.998Z,66.00
2017-07-28T03:48:53.391Z,66.13
2017-07-28T03:51:20.886Z,66.13
2017-07-28T03:53:48.266Z,66.39
2017-07-28T03:56:15.667Z,66.16
2017-07-28T03:58:43.055Z,66.71
2017-07-28T04:01:10.465Z,67.75
2017-07-28T04:03:37.855Z,67.89
2017-07-28T04:06:05.257Z,68.26
2017-07-28T04:08:32.643Z,67.70
2017-07-28T04:11:00.043Z,67.89
2017-07-28T04:13:27.443Z,67.14
2017-07-28T04:15:54.839Z,67.28
2017-07-28T04:18:22.229Z,68.08
2017-07-28T04:20:49.628Z,66.88
2017-07-28T04:23:17.015Z,66.87
2017-07-28T04:25:44.443Z,67.10
2017-07-28T04:28:11.835Z,67.72
2017-07-28T04:30:39.231Z,67.68
2017-07-28T04:33:06.615Z,68.04
2017-07-28T04:35:34.250Z,68.09
2017-07-28T04:38:01.646Z,68.24
2017-07-28T04:40:29.052Z,68.18
2017-07-28T04:42:56.443Z,68.14
2017-07-28T04:45:23.843Z,68.47
2017-07-28T04:47:51.231Z,67.95
2017-07-28T04:50:18.650Z,68.18
2017-07-28T04:52:46.346Z,67.91
2017-07-28T04:55:13.747Z,67.83
2017-07-28T04:57:41.146Z,67.14
2017-07-28T05:00:08.590Z,67.72
2017-07-28T05:02:36.020Z,67.45
2017-07-28T05:05:03.430Z,67.56
2017-07-28T05:07:30.876Z,67.99
2017-07-28T05:09:58.387Z,67.99
2017-07-28T05:12:25.839Z,68.74
2017-07-28T05:14:53.332Z,68.75
2017-07-28T05:17:20.719Z,68.53
2017-07-28T05:19:48.119Z,68.21
2017-07-28T05:22:15.531Z,68.08
2017-07-28T05:24:42.930Z,67.98
2017-07-28T05:27:10.318Z,67.38
2017-07-28T05:29:37.723Z,68.06
2017-07-28T05:32:05.138Z,68.16
2017-07-28T05:34:32.528Z,68.30
2017-07-28T05:36:59.959Z,67.84
2017-07-28T05:39:27.407Z,68.22
2017-07-28T05:41:54.877Z,68.31
2017-07-28T05:44:22.307Z,68.13
2017-07-28T05:46:49.699Z,68.29
2017-07-28T05:49:17.120Z,67.64
2017-07-28T05:51:44.516Z,67.39
2017-07-28T05:54:11.916Z,67.29
2017-07-28T05:56:39.308Z,67.15
2017-07-28T05:59:06.690Z,66.64
2017-07-28T06:01:34.099Z,66.53
2017-07-28T06:04:01.499Z,66.47
2017-07-28T06:06:28.915Z,65.78
2017-07-28T06:08:56.315Z,65.51
2017-07-28T06:11:23.708Z,65.87
2017-07-28T06:13:51.110Z,66.17
2017-07-28T06:16:18.495Z,66.20
2017-07-28T06:18:45.894Z,66.17
2017-07-28T06:21:13.295Z,66.40
2017-07-28T06:23:40.699Z,66.35
2017-07-28T06:26:08.086Z,65.89
2017-07-28T06:28:35.491Z,66.27
2017-07-28T06:31:02.915Z,66.43
2017-07-28T06:33:30.335Z,66.20
2017-07-28T06:35:57.736Z,65.95
2017-07-28T06:38:25.134Z,66.63
2017-07-28T06:40:52.535Z,65.71
2017-07-28T06:43:19.939Z,65.57
2017-07-28T06:45:47.326Z,65.50
2017-07-28T06:48:14.722Z,66.72
2017-07-28T06:50:42.111Z,66.09
2017-07-28T06:53:09.531Z,66.42
2017-07-28T06:55:36.944Z,65.67
2017-07-28T06:58:04.336Z,66.37
2017-07-28T07:00:31.942Z,65.83
2017-07-28T07:02:59.343Z,65.08
2017-07-28T07:05:26.747Z,64.44
2017-07-28T07:07:54.359Z,64.55
2017-07-28T07:10:21.755Z,64.17
2017-07-28T07:12:49.158Z,64.88
2017-07-28T07:15:16.555Z,65.09
2017-07-28T07:17:43.959Z,64.30
2017-07-28T07:20:11.562Z,65.25
2017-07-28T07:22:38.955Z,65.40
2017-07-28T07:25:06.359Z,64.56
2017-07-28T07:27:33.761Z,65.44
2017-07-28T07:30:01.171Z,64.41
2017-07-28T07:32:28.576Z,64.09
2017-07-28T07:34:56.186Z,63.62
2017-07-28T07:37:23.794Z,63.75
2017-07-28T07:39:51.195Z,64.17
2017-07-28T07:42:18.586Z,65.11
2017-07-28T07:44:46.010Z,64.19
2017-07-28T07:47:13.393Z,64.30
2017-07-28T07:49:40.794Z,63.30
2017-07-28T07:52:08.179Z,63.88
2017-07-28T07:54:35.582Z,63.44
2017-07-28T07:57:02.978Z,63.00
2017-07-28T07:59:30.375Z,63.43
2017-07-28T08:02:02.175Z,62.75
2017-07-28T08:04:29.670Z,63.61
2017-07-28T08:06:57.059Z,64.37
2017-07-28T08:09:24.457Z,63.45
2017-07-28T08:11:51.842Z,63.06
2017-07-28T08:14:19.239Z,62.81
2017-07-28T08:16:46.629Z,62.85
2017-07-28T08:19:14.022Z,62.81
2017-07-28T08:21:41.407Z,62.49
2017-07-28T08:24:08.800Z,63.49
2017-07-28T08:26:36.192Z,62.76
2017-07-28T08:29:03.582Z,62.81
2017-07-28T08:31:30.974Z,63.42
2017-07-28T08:33:58.383Z,62.71
2017-07-28T08:36:25.768Z,62.45
2017-07-28T08:38:53.213Z,63.27
2017-07-28T08:41:20.586Z,63.14
2017-07-28T08:43:48.029Z,61.46
2017-07-28T08:46:15.439Z,61.66
2017-07-28T08:48:42.863Z,62.40
2017-07-28T08:51:10.271Z,62.48
2017-07-28T08:53:37.659Z,60.15
2017-07-28T08:56:05.077Z,59.57
2017-07-28T08:58:32.468Z,61.28
2017-07-28T09:00:59.915Z,61.02
2017-07-28T09:03:27.310Z,60.04
2017-07-28T09:05:54.902Z,58.03
2017-07-28T09:08:22.279Z,58.17
2017-07-28T09:10:49.849Z,58.15
2017-07-28T09:15:51.778Z,59.76
2017-07-28T09:18:19.171Z,59.12
2017-07-28T09:20:46.572Z,58.46
2017-07-28T09:23:14.493Z,57.79
2017-07-28T09:25:41.951Z,57.28
2017-07-28T09:28:09.349Z,57.51
2017-07-28T09:30:36.975Z,57.60
2017-07-28T09:33:04.367Z,58.20
2017-07-28T09:35:31.770Z,59.41
2017-07-28T09:37:59.199Z,60.63
2017-07-28T09:40:26.802Z,60.60
2017-07-28T09:42:54.187Z,61.50
2017-07-28T09:45:21.592Z,61.06
2017-07-28T09:47:48.987Z,61.42
2017-07-28T09:50:16.386Z,60.59
2017-07-28T09:52:43.811Z,60.24
2017-07-28T09:55:11.222Z,59.88
2017-07-28T09:57:38.614Z,60.58
2017-07-28T10:00:07.628Z,61.13
2017-07-28T10:02:35.026Z,60.47
2017-07-28T10:05:02.420Z,59.49
2017-07-28T10:07:29.821Z,59.96
2017-07-28T10:09:57.205Z,58.16
2017-07-28T10:12:24.611Z,58.00
2017-07-28T10:14:52.103Z,57.43
2017-07-28T10:17:20.775Z,57.91
2017-07-28T10:19:48.146Z,57.49
2017-07-28T10:22:15.547Z,56.84
2017-07-28T10:24:42.995Z,55.62
2017-07-28T10:27:10.394Z,55.67
2017-07-28T10:29:38.055Z,55.01
2017-07-28T10:32:05.459Z,54.92
2017-07-28T10:34:32.851Z,54.48
2017-07-28T10:37:00.275Z,54.17
2017-07-28T10:39:27.675Z,53.78
2017-07-28T10:41:55.062Z,53.59
2017-07-28T10:44:22.463Z,54.19
2017-07-28T10:46:49.855Z,53.92
2017-07-28T10:49:17.282Z,54.13
2017-07-28T10:51:44.659Z,53.64
2017-07-28T10:54:12.059Z,55.81
2017-07-28T10:56:39.457Z,55.64
2017-07-28T10:59:06.848Z,55.67
2017-07-28T11:01:34.246Z,53.36
2017-07-28T11:04:01.645Z,53.21
2017-07-28T11:06:29.038Z,53.16
2017-07-28T11:08:56.428Z,54.11
2017-07-28T11:11:23.814Z,52.91
2017-07-28T11:13:51.207Z,53.82
2017-07-28T11:16:18.607Z,52.82
2017-07-28T11:18:46.092Z,52.13
2017-07-28T11:21:13.490Z,51.61
2017-07-28T11:23:40.871Z,51.95
2017-07-28T11:26:09.063Z,52.26
2017-07-28T11:28:36.455Z,53.20
2017-07-28T11:31:03.848Z,54.71
2017-07-28T11:33:31.243Z,53.73
2017-07-28T11:35:58.635Z,53.73
2017-07-28T11:38:26.028Z,53.22
2017-07-28T11:40:53.420Z,53.93
2017-07-28T11:43:20.815Z,52.83
2017-07-28T11:45:48.219Z,52.04
2017-07-28T11:48:15.678Z,51.25
2017-07-28T11:50:43.114Z,51.08
2017-07-28T11:53:10.511Z,52.85
2017-07-28T11:55:37.910Z,51.80
2017-07-28T11:58:05.295Z,49.98
2017-07-28T12:00:32.682Z,49.66
2017-07-28T12:03:00.085Z,50.47
2017-07-28T12:05:27.480Z,47.96
2017-07-28T12:07:54.877Z,49.31
2017-07-28T12:10:22.263Z,50.07
2017-07-28T12:12:49.659Z,50.28
2017-07-28T12:15:17.049Z,49.31
2017-07-28T12:17:44.435Z,48.45
2017-07-28T12:20:11.834Z,48.98
2017-07-28T12:22:39.230Z,48.04
2017-07-28T12:25:06.606Z,47.81
2017-07-28T12:27:34.023Z,46.86
2017-07-28T12:30:01.406Z,48.44
2017-07-28T12:32:28.799Z,46.80
2017-07-28T12:34:56.200Z,46.35
2017-07-28T12:37:23.583Z,47.42
2017-07-28T12:39:50.975Z,43.95
2017-07-28T12:42:18.360Z,44.75
2017-07-28T12:44:45.754Z,44.92
2017-07-28T12:47:13.139Z,43.90
2017-07-28T12:49:40.546Z,45.26
2017-07-28T12:52:07.949Z,43.89
2017-07-28T12:54:35.347Z,45.05
2017-07-28T12:57:02.754Z,44.87
2017-07-28T12:59:30.159Z,44.34
2017-07-28T13:01:57.552Z,45.15
2017-07-28T13:04:24.947Z,43.96
2017-07-28T13:06:52.331Z,44.01
2017-07-28T13:09:19.727Z,43.63
2017-07-28T13:11:47.111Z,44.64
2017-07-28T13:14:14.506Z,44.05
2017-07-28T13:16:41.891Z,43.60
2017-07-28T13:19:09.311Z,45.52
2017-07-28T13:21:36.711Z,45.77
2017-07-28T13:24:04.106Z,47.56
2017-07-28T13:26:31.495Z,49.83
2017-07-28T13:28:58.891Z,51.53
2017-07-28T13:31:26.292Z,52.59
2017-07-28T13:33:53.695Z,53.73
2017-07-28T13:36:21.090Z,55.45
2017-07-28T13:38:48.489Z,57.04
2017-07-28T13:41:15.887Z,58.98
2017-07-28T13:43:43.303Z,60.95
2017-07-28T13:46:29.411Z,61.91
2017-07-28T13:48:56.827Z,61.29
2017-07-28T13:51:24.219Z,62.37
2017-07-28T13:53:52.856Z,61.55
2017-07-28T13:56:20.230Z,61.21
2017-07-28T13:58:47.631Z,59.46
2017-07-28T14:01:15.031Z,59.38
2017-07-28T14:03:42.419Z,59.13
2017-07-28T14:06:09.820Z,58.65
2017-07-28T14:08:37.211Z,58.22
2017-07-28T14:11:04.611Z,58.03
2017-07-28T14:13:32.006Z,58.38
2017-07-28T14:18:49.870Z,60.08
2017-07-28T14:21:17.269Z,61.46
2017-07-28T14:23:44.654Z,63.96
2017-07-28T14:26:12.048Z,65.04
2017-07-28T14:28:39.454Z,67.43
2017-07-28T14:31:07.002Z,67.17
2017-07-28T14:33:34.381Z,68.84
2017-07-28T14:36:01.771Z,69.69
2017-07-28T14:38:29.197Z,69.62
2017-07-28T14:40:56.561Z,69.79
2017-07-28T14:43:23.982Z,69.87
2017-07-28T14:45:54.698Z,70.38
2017-07-28T14:48:22.087Z,70.37
2017-07-28T14:50:50.724Z,69.39
2017-07-28T14:53:18.111Z,67.38
2017-07-28T14:55:45.512Z,67.16
2017-07-28T14:58:12.954Z,66.41
2017-07-28T15:00:40.325Z,64.81
2017-07-28T15:03:07.729Z,63.83
2017-07-28T15:05:35.138Z,64.10
2017-07-28T15:08:04.474Z,63.08
2017-07-28T15:10:31.870Z,61.91
2017-07-28T15:12:59.254Z,61.21
2017-07-28T15:15:26.643Z,61.02
2017-07-28T15:17:54.044Z,59.46
2017-07-28T15:20:21.428Z,59.37
2017-07-28T15:22:48.823Z,58.58
2017-07-28T15:25:16.218Z,57.48
2017-07-28T15:27:43.639Z,56.61
2017-07-28T15:30:11.047Z,57.06
2017-07-28T15:32:38.452Z,57.92
2017-07-28T15:35:05.834Z,57.17
2017-07-28T15:37:33.243Z,56.86
2017-07-28T15:40:00.631Z,56.05
2017-07-28T15:42:28.042Z,57.32
2017-07-28T15:44:55.444Z,57.11
2017-07-28T15:47:22.843Z,56.52
2017-07-28T15:49:50.235Z,55.10
2017-07-28T15:52:17.626Z,54.51
2017-07-28T15:54:45.018Z,53.23
2017-07-28T15:57:12.409Z,53.33
2017-07-28T15:59:39.806Z,53.06
2017-07-28T16:02:07.195Z,52.98
2017-07-28T16:04:34.591Z,53.27
2017-07-28T16:07:01.994Z,52.87
2017-07-28T16:09:29.370Z,53.35
2017-07-28T16:11:56.758Z,51.93
2017-07-28T16:14:24.166Z,52.52
2017-07-28T16:16:51.563Z,52.59
2017-07-28T16:19:18.958Z,50.48
2017-07-28T16:21:46.354Z,50.88
2017-07-28T16:24:13.746Z,50.88
2017-07-28T16:26:41.143Z,50.91
2017-07-28T16:29:08.824Z,50.20
2017-07-28T16:31:36.203Z,50.67
2017-07-28T16:34:03.700Z,50.54
2017-07-28T16:36:31.091Z,50.75
2017-07-28T16:38:58.484Z,50.22
2017-07-28T16:41:25.887Z,50.65
2017-07-28T16:43:53.303Z,51.06
2017-07-28T16:46:20.698Z,51.64
2017-07-28T16:48:48.097Z,52.01
2017-07-28T16:51:15.555Z,52.46
2017-07-28T16:53:42.932Z,51.17
2017-07-28T16:56:10.339Z,51.24
2017-07-28T16:58:37.741Z,50.83
2017-07-28T17:01:05.347Z,50.55
2017-07-28T17:03:32.739Z,49.63
2017-07-28T17:06:00.162Z,48.96
2017-07-28T17:08:27.586Z,48.82
2017-07-28T17:10:54.975Z,48.09
2017-07-28T17:13:22.379Z,47.79
2017-07-28T17:15:49.763Z,47.63
2017-07-28T17:18:17.174Z,47.79
2017-07-28T17:20:44.570Z,47.59
2017-07-28T17:23:11.968Z,47.78
2017-07-28T17:25:39.353Z,47.86
2017-07-28T17:28:06.749Z,48.46
2017-07-28T17:30:34.139Z,49.05
2017-07-28T17:33:04.341Z,48.77
2017-07-28T17:35:31.730Z,48.72
2017-07-28T17:37:59.135Z,48.63
2017-07-28T17:40:26.540Z,48.85
2017-07-28T17:42:53.944Z,49.02
2017-07-28T17:45:21.558Z,49.45
2017-07-28T17:47:48.980Z,49.55
2017-07-28T17:50:16.368Z,49.88
2017-07-28T17:52:43.904Z,50.47
2017-07-28T17:55:11.303Z,50.01
2017-07-28T17:57:38.723Z,49.41
2017-07-28T18:00:06.193Z,49.92
2017-07-28T18:02:33.580Z,49.83
2017-07-28T18:05:00.978Z,49.99
2017-07-28T18:07:28.583Z,49.69
2017-07-28T18:09:55.991Z,50.03
2017-07-28T18:12:23.387Z,50.42
2017-07-28T18:14:50.838Z,49.39
2017-07-28T18:17:18.221Z,49.71
2017-07-28T18:19:45.612Z,49.13
2017-07-28T18:22:13.014Z,49.25
2017-07-28T18:24:40.423Z,49.62
2017-07-28T18:27:07.838Z,49.14
2017-07-28T18:29:35.544Z,49.39
2017-07-28T18:32:03.171Z,49.50
2017-07-28T18:34:30.556Z,49.93
2017-07-28T18:36:57.946Z,50.05
2017-07-28T18:39:25.347Z,50.24
2017-07-28T18:41:52.875Z,50.15
2017-07-28T18:44:20.271Z,50.51
2017-07-28T18:46:47.903Z,50.41
2017-07-28T18:49:15.289Z,50.36
2017-07-28T18:51:42.686Z,50.31
2017-07-28T18:54:10.083Z,50.17
2017-07-28T18:56:37.475Z,50.60
2017-07-28T18:59:04.877Z,50.78
2017-07-28T19:01:32.269Z,50.75
2017-07-28T19:03:59.736Z,50.68
2017-07-28T19:06:27.340Z,50.95
2017-07-28T19:08:54.732Z,50.94
2017-07-28T19:11:22.131Z,50.96
2017-07-28T19:13:49.524Z,51.19
2017-07-28T19:16:16.915Z,51.50
2017-07-28T19:18:44.320Z,51.57
2017-07-28T19:21:11.716Z,51.54
2017-07-28T19:23:39.108Z,51.56
2017-07-28T19:26:06.499Z,51.59
2017-07-28T19:28:33.890Z,51.50
2017-07-28T19:31:01.290Z,51.68
2017-07-28T19:33:28.678Z,51.91
2017-07-28T19:35:56.082Z,52.16
2017-07-28T19:38:23.473Z,52.30
2017-07-28T19:40:50.886Z,52.39
2017-07-28T19:43:18.270Z,52.54
2017-07-28T19:45:45.690Z,52.53
2017-07-28T19:48:13.105Z,52.82
2017-07-28T19:50:40.495Z,52.92
2017-07-28T19:53:07.892Z,52.78
2017-07-28T19:55:35.308Z,53.02
2017-07-28T19:58:02.695Z,52.98
2017-07-28T20:00:30.103Z,53.19
2017-07-28T20:02:57.588Z,53.39
2017-07-28T20:05:24.988Z,53.52
2017-07-28T20:07:52.522Z,53.75
2017-07-28T20:10:19.924Z,53.80
2017-07-28T20:12:47.323Z,53.49
2017-07-28T20:15:14.733Z,53.78
2017-07-28T20:17:42.143Z,54.31
2017-07-28T20:20:09.544Z,55.16
2017-07-28T20:22:36.949Z,55.62
2017-07-28T20:25:04.352Z,55.86
2017-07-28T20:27:31.756Z,55.75
2017-07-28T20:29:59.153Z,56.43
2017-07-28T20:32:26.552Z,56.72
2017-07-28T20:34:53.959Z,57.25
2017-07-28T20:37:21.377Z,57.81
2017-07-28T20:39:48.767Z,58.13
2017-07-28T20:42:16.166Z,57.83
2017-07-28T20:44:43.563Z,57.94
2017-07-28T20:47:10.965Z,58.02
2017-07-28T20:49:38.360Z,57.91
2017-07-28T20:52:05.774Z,58.13
2017-07-28T20:54:33.210Z,58.40
2017-07-28T20:57:00.610Z,58.42
2017-07-28T20:59:28.669Z,58.34
2017-07-28T21:01:56.063Z,58.54
2017-07-28T21:04:23.485Z,58.14
2017-07-28T21:06:50.920Z,58.24
2017-07-28T21:09:18.311Z,57.91
2017-07-28T21:11:45.716Z,58.35
2017-07-28T21:14:18.961Z,58.65
2017-07-28T21:16:46.359Z,58.31
2017-07-28T21:19:13.755Z,58.08
2017-07-28T21:21:41.359Z,57.87
2017-07-28T21:24:09.030Z,57.77
2017-07-28T21:26:36.441Z,57.58
2017-07-28T21:29:03.840Z,57.35
2017-07-28T21:31:31.247Z,57.69
2017-07-28T21:33:58.628Z,57.35
2017-07-28T21:36:26.022Z,57.14
2017-07-28T21:38:53.634Z,57.12
2017-07-28T21:41:21.032Z,57.03
2017-07-28T21:43:48.423Z,57.58
2017-07-28T21:46:15.820Z,57.51
2017-07-28T21:48:43.220Z,58.05
2017-07-28T21:51:10.610Z,57.97
2017-07-28T21:53:38.007Z,57.84
2017-07-28T21:56:05.407Z,57.86
2017-07-28T21:58:33.027Z,57.79
2017-07-28T22:01:00.423Z,58.34
2017-07-28T22:03:27.824Z,58.11
2017-07-28T22:05:55.246Z,58.19
2017-07-28T22:08:22.655Z,58.41
2017-07-28T22:10:50.047Z,58.41
2017-07-28T22:13:17.468Z,58.35
2017-07-28T22:15:45.118Z,58.47
2017-07-28T22:18:12.500Z,58.28
2017-07-28T22:20:39.898Z,58.76
2017-07-28T22:23:07.295Z,58.47
2017-07-28T22:25:34.692Z,58.64
2017-07-28T22:28:02.271Z,58.52
2017-07-28T22:30:29.651Z,58.89
2017-07-28T22:32:57.052Z,59.08
2017-07-28T22:35:24.447Z,59.07
2017-07-28T22:37:51.843Z,58.84
2017-07-28T22:40:19.236Z,58.61
2017-07-28T22:42:46.660Z,58.51
2017-07-28T22:45:14.056Z,58.42
2017-07-28T22:47:41.676Z,58.77
2017-07-28T22:50:09.080Z,58.57
2017-07-28T22:52:36.476Z,58.54
2017-07-28T22:55:03.875Z,58.93
2017-07-28T22:57:31.268Z,58.60
2017-07-28T22:59:58.668Z,59.01
2017-07-28T23:02:26.068Z,59.12
2017-07-28T23:04:53.474Z,59.12
2017-07-28T23:07:20.862Z,59.30
2017-07-28T23:09:48.258Z,59.47
2017-07-28T23:12:15.658Z,59.78
2017-07-28T23:14:43.276Z,59.31
2017-07-28T23:17:10.746Z,59.27
2017-07-28T23:19:38.152Z,59.38
2017-07-28T23:22:05.545Z,59.50
2017-07-28T23:24:32.951Z,60.25
2017-07-28T23:27:00.347Z,59.87
2017-07-28T23:29:27.742Z,59.66
2017-07-28T23:31:55.153Z,60.33
2017-07-28T23:34:22.786Z,59.99
2017-07-28T23:36:50.175Z,60.01
2017-07-28T23:39:17.580Z,60.08
2017-07-28T23:41:44.970Z,60.39
2017-07-28T23:44:12.359Z,60.87
2017-07-28T23:46:39.764Z,60.86
2017-07-28T23:49:07.150Z,61.39
2017-07-28T23:51:34.551Z,60.74
2017-07-28T23:54:02.167Z,60.26
2017-07-28T23:56:29.573Z,59.92
2017-07-28T23:58:56.971Z,59.84
